createdAt,value
2023-01-12T00:00:25.083Z,6.90
2023-01-12T00:02:52.012Z,6.90
2023-01-12T00:05:18.883Z,6.90
2023-01-12T00:07:45.734Z,6.90
2023-01-12T00:10:15.582Z,6.90
2023-01-12T00:12:42.454Z,6.90
2023-01-12T00:15:10.043Z,6.90
2023-01-12T00:17:36.872Z,6.90
2023-01-12T00:20:06.308Z,6.90
2023-01-12T00:22:33.145Z,7.00
2023-01-12T00:25:00.009Z,7.00
2023-01-12T00:27:26.877Z,6.90
2023-01-12T00:29:53.762Z,6.90
2023-01-12T00:32:21.396Z,6.90
2023-01-12T00:34:48.348Z,6.90
2023-01-12T00:37:15.782Z,6.90
2023-01-12T00:39:53.123Z,6.90
2023-01-12T00:42:42.373Z,6.80
2023-01-12T00:45:36.588Z,6.80
2023-01-12T00:48:03.520Z,6.80
2023-01-12T00:50:30.359Z,6.70
2023-01-12T00:52:57.543Z,6.70
2023-01-12T00:55:24.457Z,6.70
2023-01-12T00:57:51.304Z,6.80
2023-01-12T01:00:18.587Z,6.70
2023-01-12T01:02:45.809Z,6.70
2023-01-12T01:05:12.656Z,6.70
2023-01-12T01:07:39.522Z,6.70
2023-01-12T01:10:07.292Z,6.70
2023-01-12T01:12:34.127Z,6.60
2023-01-12T01:15:00.988Z,6.70
2023-01-12T01:17:29.282Z,6.70
2023-01-12T01:19:56.578Z,6.70
2023-01-12T01:22:23.907Z,6.70
2023-01-12T01:24:50.807Z,6.70
2023-01-12T01:27:17.625Z,6.70
2023-01-12T01:29:44.526Z,6.70
2023-01-12T01:32:11.442Z,6.70
2023-01-12T01:34:38.299Z,6.70
2023-01-12T01:37:05.162Z,6.70
2023-01-12T01:39:32.422Z,6.70
2023-01-12T01:42:00.973Z,6.80
2023-01-12T01:44:30.557Z,6.80
2023-01-12T01:47:45.963Z,6.80
2023-01-12T01:50:25.366Z,6.80
2023-01-12T01:53:08.781Z,6.80
2023-01-12T01:55:48.317Z,6.80
2023-01-12T01:58:41.083Z,6.90
2023-01-12T02:01:09.101Z,6.90
2023-01-12T02:03:37.915Z,7.00
2023-01-12T02:06:07.332Z,7.00
2023-01-12T02:09:03.972Z,7.00
2023-01-12T02:11:49.516Z,7.00
2023-01-12T02:14:35.073Z,7.00
2023-01-12T02:18:11.256Z,7.10
2023-01-12T02:20:55.727Z,7.20
2023-01-12T02:23:22.564Z,7.20
2023-01-12T02:26:37.184Z,7.20
2023-01-12T02:29:06.531Z,7.20
2023-01-12T02:32:12.519Z,7.30
2023-01-12T02:35:00.778Z,7.30
2023-01-12T02:37:47.585Z,7.40
2023-01-12T02:40:28.828Z,7.30
2023-01-12T02:43:30.535Z,7.40
2023-01-12T02:46:28.679Z,7.30
2023-01-12T02:49:09.552Z,7.30
2023-01-12T02:51:48.048Z,7.30
2023-01-12T02:54:19.712Z,7.30
2023-01-12T02:57:04.077Z,7.20
2023-01-12T02:59:37.136Z,7.20
2023-01-12T03:02:09.681Z,7.10
2023-01-12T03:04:36.807Z,7.10
2023-01-12T03:07:03.592Z,7.00
2023-01-12T03:09:55.731Z,7.00
2023-01-12T03:12:35.355Z,7.00
2023-01-12T03:15:08.174Z,7.00
2023-01-12T03:18:03.871Z,7.00
2023-01-12T03:20:39.323Z,7.00
2023-01-12T03:23:20.237Z,7.10
2023-01-12T03:25:50.807Z,7.10
2023-01-12T03:28:22.766Z,7.20
2023-01-12T03:31:00.869Z,7.20
2023-01-12T03:33:27.942Z,7.20
2023-01-12T03:36:35.345Z,7.20
2023-01-12T03:39:15.982Z,7.30
2023-01-12T03:41:56.386Z,7.30
2023-01-12T03:44:41.805Z,7.30
2023-01-12T03:47:18.346Z,7.30
2023-01-12T03:49:57.721Z,7.40
2023-01-12T03:52:28.449Z,7.40
2023-01-12T03:54:59.543Z,7.40
2023-01-12T03:57:27.973Z,7.40
2023-01-12T03:59:57.387Z,7.40
2023-01-12T04:02:24.200Z,7.40
2023-01-12T04:04:51.564Z,7.40
2023-01-12T04:07:18.424Z,7.40
2023-01-12T04:09:45.256Z,7.50
2023-01-12T04:12:12.139Z,7.50
2023-01-12T04:14:42.453Z,7.50
2023-01-12T04:17:13.796Z,7.50
2023-01-12T04:19:41.152Z,7.50
2023-01-12T04:22:28.172Z,7.50
2023-01-12T04:24:55.016Z,7.50
2023-01-12T04:27:21.841Z,7.50
2023-01-12T04:29:48.819Z,7.50
2023-01-12T04:32:15.712Z,7.50
2023-01-12T04:34:42.545Z,7.60
2023-01-12T04:37:09.404Z,7.60
2023-01-12T04:39:36.182Z,7.60
2023-01-12T04:42:03.125Z,7.60
2023-01-12T04:44:30.086Z,7.50
2023-01-12T04:46:56.906Z,7.50
2023-01-12T04:49:23.718Z,7.40
2023-01-12T04:51:50.540Z,7.40
2023-01-12T04:54:17.324Z,7.30
2023-01-12T04:56:44.117Z,7.30
2023-01-12T04:59:10.930Z,7.20
2023-01-12T05:01:39.083Z,7.20
2023-01-12T05:04:07.847Z,7.10
2023-01-12T05:06:35.056Z,7.20
2023-01-12T05:09:20.342Z,7.20
2023-01-12T05:11:47.189Z,7.20
2023-01-12T05:14:14.064Z,7.10
2023-01-12T05:16:41.061Z,7.10
2023-01-12T05:19:09.400Z,7.00
2023-01-12T05:21:36.315Z,7.00
2023-01-12T05:24:03.314Z,6.90
2023-01-12T05:26:30.127Z,7.00
2023-01-12T05:28:57.000Z,7.00
2023-01-12T05:31:23.892Z,7.00
2023-01-12T05:33:54.636Z,6.90
2023-01-12T05:36:21.625Z,6.90
2023-01-12T05:38:48.517Z,7.00
2023-01-12T05:41:15.418Z,6.90
2023-01-12T05:43:52.220Z,7.00
2023-01-12T05:46:29.734Z,7.00
2023-01-12T05:48:58.056Z,7.10
2023-01-12T05:51:27.197Z,7.00
2023-01-12T05:53:55.243Z,7.00
2023-01-12T05:56:27.586Z,7.00
2023-01-12T05:59:01.152Z,7.00
2023-01-12T06:01:29.679Z,7.10
2023-01-12T06:04:01.364Z,7.10
2023-01-12T06:06:31.404Z,7.10
2023-01-12T06:09:01.207Z,7.10
2023-01-12T06:11:46.714Z,7.10
2023-01-12T06:14:13.653Z,7.10
2023-01-12T06:16:43.461Z,7.00
2023-01-12T06:19:13.060Z,7.00
2023-01-12T06:21:41.017Z,7.00
2023-01-12T06:24:08.995Z,6.90
2023-01-12T06:26:35.972Z,7.00
2023-01-12T06:29:05.473Z,7.00
2023-01-12T06:31:33.546Z,7.00
2023-01-12T06:34:00.429Z,7.10
2023-01-12T06:36:27.380Z,7.10
2023-01-12T06:38:54.265Z,7.10
2023-01-12T06:41:39.587Z,7.10
2023-01-12T06:44:06.461Z,7.10
2023-01-12T06:46:33.313Z,7.20
2023-01-12T06:49:00.521Z,7.20
2023-01-12T06:51:27.957Z,7.20
2023-01-12T06:53:55.357Z,7.20
2023-01-12T06:56:22.842Z,7.20
2023-01-12T06:58:49.735Z,7.30
2023-01-12T07:01:16.992Z,7.30
2023-01-12T07:03:44.141Z,7.40
2023-01-12T07:06:11.050Z,7.40
2023-01-12T07:08:37.985Z,7.30
2023-01-12T07:11:08.121Z,7.30
2023-01-12T07:13:35.415Z,7.30
2023-01-12T07:16:02.845Z,7.30
2023-01-12T07:18:31.217Z,7.30
2023-01-12T07:20:58.327Z,7.40
2023-01-12T07:23:25.520Z,7.40
2023-01-12T07:25:52.571Z,7.40
2023-01-12T07:28:19.409Z,7.40
2023-01-12T07:30:46.371Z,7.40
2023-01-12T07:33:18.423Z,7.40
2023-01-12T07:35:45.569Z,7.40
2023-01-12T07:38:12.518Z,7.30
2023-01-12T07:40:39.444Z,7.30
2023-01-12T07:43:09.010Z,7.40
2023-01-12T07:45:36.500Z,7.30
2023-01-12T07:48:03.691Z,7.40
2023-01-12T07:50:30.759Z,7.30
2023-01-12T07:53:02.353Z,7.40
2023-01-12T07:55:31.178Z,7.30
2023-01-12T07:58:03.609Z,7.20
2023-01-12T08:00:31.450Z,7.20
2023-01-12T08:03:14.098Z,7.20
2023-01-12T08:05:41.415Z,7.20
2023-01-12T08:08:08.784Z,7.20
2023-01-12T08:10:36.156Z,7.30
2023-01-12T08:13:03.271Z,7.30
2023-01-12T08:15:38.979Z,7.30
2023-01-12T08:18:19.264Z,7.20
2023-01-12T08:20:47.231Z,7.20
2023-01-12T08:23:26.179Z,7.30
2023-01-12T08:26:01.226Z,7.30
2023-01-12T08:28:48.618Z,7.40
2023-01-12T08:33:46.871Z,7.40
2023-01-12T08:36:16.968Z,7.40
2023-01-12T08:38:45.059Z,7.50
2023-01-12T08:41:30.563Z,7.50
2023-01-12T08:44:03.337Z,7.50
2023-01-12T08:46:39.596Z,7.50
2023-01-12T08:49:11.537Z,7.60
2023-01-12T08:51:44.632Z,7.70
2023-01-12T08:54:14.072Z,7.80
2023-01-12T08:56:41.082Z,7.90
2023-01-12T08:59:08.256Z,7.80
2023-01-12T09:01:35.824Z,7.70
2023-01-12T09:04:02.993Z,7.70
2023-01-12T09:06:35.444Z,7.80
2023-01-12T09:09:06.263Z,7.70
2023-01-12T09:11:33.234Z,7.80
2023-01-12T09:14:00.348Z,7.80
2023-01-12T09:16:30.206Z,7.80
2023-01-12T09:18:57.915Z,7.80
2023-01-12T09:21:27.740Z,7.90
2023-01-12T09:23:55.877Z,7.80
2023-01-12T09:26:31.658Z,7.80
2023-01-12T09:29:00.482Z,7.80
2023-01-12T09:31:30.267Z,7.90
2023-01-12T09:33:57.684Z,7.90
2023-01-12T09:36:29.960Z,7.90
2023-01-12T09:38:58.160Z,7.90
2023-01-12T09:41:56.932Z,7.90
2023-01-12T09:44:58.197Z,7.90
2023-01-12T09:47:53.875Z,7.90
2023-01-12T09:50:32.579Z,7.80
2023-01-12T09:53:21.665Z,7.70
2023-01-12T09:56:01.630Z,7.80
2023-01-12T09:58:59.492Z,7.80
2023-01-12T10:01:29.830Z,7.90
2023-01-12T10:04:01.074Z,7.90
2023-01-12T10:06:28.854Z,7.90
2023-01-12T10:09:13.640Z,7.90
2023-01-12T10:12:05.908Z,7.90
2023-01-12T10:14:32.753Z,7.90
2023-01-12T10:17:25.586Z,7.90
2023-01-12T10:20:24.958Z,8.00
2023-01-12T10:22:58.488Z,7.90
2023-01-12T10:25:44.949Z,7.90
2023-01-12T10:28:26.235Z,7.90
2023-01-12T10:30:56.363Z,7.80
2023-01-12T10:33:34.616Z,7.90
2023-01-12T10:36:20.668Z,7.90
2023-01-12T10:38:57.676Z,8.00
2023-01-12T10:41:27.207Z,8.10
2023-01-12T10:43:59.510Z,8.10
2023-01-12T10:46:32.450Z,8.20
2023-01-12T10:49:20.572Z,8.20
2023-01-12T10:52:41.093Z,8.30
2023-01-12T10:55:19.875Z,8.30
2023-01-12T10:57:49.736Z,8.40
2023-01-12T11:00:26.023Z,8.50
2023-01-12T11:02:53.977Z,8.60
2023-01-12T11:05:38.654Z,8.60
2023-01-12T11:08:28.341Z,8.70
2023-01-12T11:10:55.220Z,8.70
2023-01-12T11:13:36.594Z,8.80
2023-01-12T11:16:19.314Z,8.80
2023-01-12T11:19:10.534Z,8.90
2023-01-12T11:21:42.386Z,8.90
2023-01-12T11:24:42.626Z,8.90
2023-01-12T11:27:28.163Z,8.90
2023-01-12T11:30:28.240Z,8.80
2023-01-12T11:33:10.279Z,8.80
2023-01-12T11:36:15.822Z,8.70
2023-01-12T11:38:55.185Z,8.70
2023-01-12T11:41:37.505Z,8.70
2023-01-12T11:44:16.606Z,8.70
2023-01-12T11:47:06.536Z,8.80
2023-01-12T11:49:47.590Z,8.80
2023-01-12T11:52:16.641Z,8.90
2023-01-12T11:54:44.065Z,8.90
2023-01-12T11:57:31.932Z,8.90
2023-01-12T12:00:29.104Z,8.90
2023-01-12T12:03:54.533Z,8.90
2023-01-12T12:06:46.787Z,8.80
2023-01-12T12:09:43.663Z,8.80
2023-01-12T12:12:55.673Z,8.80
2023-01-12T12:15:58.785Z,8.90
2023-01-12T12:19:02.425Z,8.90
2023-01-12T12:22:08.023Z,8.90
2023-01-12T12:25:41.438Z,8.90
2023-01-12T12:28:21.253Z,9.00
2023-01-12T12:30:48.341Z,9.00
2023-01-12T12:33:36.220Z,9.00
2023-01-12T12:36:18.932Z,9.00
2023-01-12T12:39:35.955Z,9.00
2023-01-12T12:42:27.898Z,9.10
2023-01-12T12:45:54.939Z,9.10
2023-01-12T12:48:52.177Z,9.10
2023-01-12T12:51:20.498Z,9.20
2023-01-12T12:53:52.377Z,9.10
2023-01-12T12:56:26.223Z,9.10
2023-01-12T12:58:56.703Z,9.20
2023-01-12T13:01:23.758Z,9.10
2023-01-12T13:03:53.954Z,9.10
2023-01-12T13:06:32.175Z,9.20
2023-01-12T13:09:12.295Z,9.20
2023-01-12T13:12:34.719Z,9.30
2023-01-12T13:15:26.095Z,9.30
2023-01-12T13:17:55.278Z,9.40
2023-01-12T13:20:37.304Z,9.30
2023-01-12T13:23:44.578Z,9.30
2023-01-12T13:26:39.379Z,9.30
2023-01-12T13:29:24.569Z,9.30
2023-01-12T13:32:12.679Z,9.40
2023-01-12T13:34:42.223Z,9.40
2023-01-12T13:37:32.873Z,9.40
2023-01-12T13:40:30.607Z,9.40
2023-01-12T13:43:31.193Z,9.40
2023-01-12T13:46:20.193Z,9.40
2023-01-12T13:48:53.798Z,9.40
2023-01-12T13:51:34.823Z,9.50
2023-01-12T13:54:16.068Z,9.50
2023-01-12T13:56:52.297Z,9.50
2023-01-12T13:59:19.553Z,9.60
2023-01-12T14:01:48.545Z,9.60
2023-01-12T14:04:18.734Z,9.60
2023-01-12T14:07:45.776Z,9.70
2023-01-12T14:10:53.621Z,9.70
2023-01-12T14:14:35.151Z,9.70
2023-01-12T14:17:36.242Z,9.60
2023-01-12T14:20:03.227Z,9.60
2023-01-12T14:22:30.153Z,9.60
2023-01-12T14:25:21.636Z,9.60
2023-01-12T14:27:51.401Z,9.70
2023-01-12T14:30:18.909Z,9.60
2023-01-12T14:32:48.614Z,9.60
2023-01-12T14:35:27.445Z,9.70
2023-01-12T14:38:01.768Z,9.60
2023-01-12T14:40:33.590Z,9.60
2023-01-12T14:43:21.665Z,9.50
2023-01-12T14:46:08.675Z,9.60
2023-01-12T14:48:40.489Z,9.50
2023-01-12T14:51:10.266Z,9.40
2023-01-12T14:53:42.858Z,9.40
2023-01-12T14:56:22.781Z,9.40
2023-01-12T14:58:50.568Z,9.40
2023-01-12T15:01:37.034Z,9.40
2023-01-12T15:04:08.199Z,9.30
2023-01-12T15:06:44.332Z,9.20
2023-01-12T15:09:31.677Z,9.20
2023-01-12T15:11:58.967Z,9.20
2023-01-12T15:14:29.269Z,9.30
2023-01-12T15:17:15.270Z,9.20
2023-01-12T15:20:00.739Z,9.30
2023-01-12T15:22:47.319Z,9.20
2023-01-12T15:25:37.226Z,9.20
2023-01-12T15:28:07.513Z,9.10
2023-01-12T15:30:38.432Z,9.10
2023-01-12T15:33:06.502Z,9.10
2023-01-12T15:35:35.284Z,9.10
2023-01-12T15:38:02.208Z,9.10
2023-01-12T15:40:30.008Z,9.10
2023-01-12T15:42:59.156Z,9.10
2023-01-12T15:45:34.833Z,9.10
2023-01-12T15:48:03.774Z,9.10
2023-01-12T15:50:32.846Z,9.10
2023-01-12T15:53:01.427Z,9.00
2023-01-12T15:55:35.793Z,9.10
2023-01-12T15:58:03.010Z,9.10
2023-01-12T16:00:30.042Z,9.10
2023-01-12T16:02:57.004Z,9.00
2023-01-12T16:05:26.318Z,9.00
2023-01-12T16:07:53.746Z,9.10
2023-01-12T16:10:21.515Z,9.10
2023-01-12T16:12:48.390Z,9.10
2023-01-12T16:15:29.118Z,9.10
2023-01-12T16:17:56.388Z,9.20
2023-01-12T16:20:23.201Z,9.20
2023-01-12T16:22:50.175Z,9.20
2023-01-12T16:25:17.438Z,9.10
2023-01-12T16:27:44.669Z,9.20
2023-01-12T16:30:15.856Z,9.20
2023-01-12T16:32:46.960Z,9.20
2023-01-12T16:35:15.805Z,9.20
2023-01-12T16:37:44.814Z,9.20
2023-01-12T16:40:13.023Z,9.20
2023-01-12T16:42:40.119Z,9.30
2023-01-12T16:45:08.101Z,9.30
2023-01-12T16:47:35.565Z,9.30
2023-01-12T16:50:03.953Z,9.30
2023-01-12T16:52:30.930Z,9.30
2023-01-12T16:54:58.492Z,9.30
2023-01-12T16:57:25.855Z,9.20
2023-01-12T16:59:53.490Z,9.10
2023-01-12T17:02:21.667Z,9.10
2023-01-12T17:04:52.892Z,9.10
2023-01-12T17:07:21.469Z,9.10
2023-01-12T17:09:49.441Z,9.10
2023-01-12T17:12:17.614Z,9.10
2023-01-12T17:14:46.072Z,9.10
2023-01-12T17:17:13.892Z,9.10
2023-01-12T17:19:47.255Z,9.10
2023-01-12T17:22:15.324Z,9.10
2023-01-12T17:24:42.950Z,9.20
2023-01-12T17:27:11.440Z,9.10
2023-01-12T17:29:39.021Z,9.20
2023-01-12T17:32:07.922Z,9.20
2023-01-12T17:34:38.985Z,9.20
2023-01-12T17:37:11.034Z,9.20
2023-01-12T17:39:43.245Z,9.20
2023-01-12T17:42:34.714Z,9.20
2023-01-12T17:45:02.555Z,9.30
2023-01-12T17:47:30.181Z,9.30
2023-01-12T17:49:57.226Z,9.20
2023-01-12T17:52:24.414Z,9.30
2023-01-12T17:54:51.744Z,9.30
2023-01-12T17:57:18.820Z,9.30
2023-01-12T17:59:45.827Z,9.30
2023-01-12T18:02:14.890Z,9.30
2023-01-12T18:04:42.153Z,9.30
2023-01-12T18:07:09.753Z,9.20
2023-01-12T18:09:37.164Z,9.20
2023-01-12T18:12:05.429Z,9.30
2023-01-12T18:14:32.737Z,9.30
2023-01-12T18:17:01.661Z,9.30
2023-01-12T18:19:30.470Z,9.30
2023-01-12T18:21:59.515Z,9.30
2023-01-12T18:24:27.808Z,9.30
2023-01-12T18:26:55.289Z,9.30
2023-01-12T18:29:22.754Z,9.30
2023-01-12T18:31:50.007Z,9.30
2023-01-12T18:34:19.495Z,9.30
2023-01-12T18:36:48.221Z,9.40
2023-01-12T18:39:21.640Z,9.30
2023-01-12T18:42:08.688Z,9.30
2023-01-12T18:44:36.822Z,9.30
2023-01-12T18:47:22.747Z,9.40
2023-01-12T18:49:50.684Z,9.30
2023-01-12T18:52:37.561Z,9.40
2023-01-12T18:55:06.449Z,9.30
2023-01-12T18:57:34.418Z,9.30
2023-01-12T19:00:14.937Z,9.40
2023-01-12T19:02:42.103Z,9.30
2023-01-12T19:05:47.279Z,9.30
2023-01-12T19:08:29.301Z,9.30
2023-01-12T19:11:07.149Z,9.30
2023-01-12T19:13:53.583Z,9.30
2023-01-12T19:16:41.405Z,9.30
2023-01-12T19:19:08.868Z,9.40
2023-01-12T19:21:55.272Z,9.30
2023-01-12T19:24:41.194Z,9.30
2023-01-12T19:27:31.377Z,9.30
2023-01-12T19:29:58.454Z,9.40
2023-01-12T19:46:34.510Z,9.30
2023-01-12T19:49:01.540Z,9.80
2023-01-12T19:51:28.407Z,9.70
2023-01-12T19:53:55.544Z,9.60
2023-01-12T19:56:22.623Z,9.50
2023-01-12T19:58:50.692Z,9.50
2023-01-12T20:01:23.173Z,9.50
2023-01-12T20:03:51.114Z,9.50
2023-01-12T20:06:18.616Z,9.50
2023-01-12T20:08:45.723Z,9.50
2023-01-12T20:11:13.646Z,9.50
2023-01-12T20:13:40.698Z,9.50
2023-01-12T20:16:10.538Z,9.50
2023-01-12T20:18:37.662Z,9.40
2023-01-12T20:21:09.955Z,9.40
2023-01-12T20:23:36.893Z,9.30
2023-01-12T20:26:09.066Z,9.40
2023-01-12T20:28:36.132Z,9.40
2023-01-12T20:31:13.150Z,9.40
2023-01-12T20:33:40.661Z,9.50
2023-01-12T20:36:14.469Z,9.40
2023-01-12T20:38:42.873Z,9.40
2023-01-12T20:41:10.856Z,9.30
2023-01-12T20:43:38.373Z,9.30
2023-01-12T20:46:11.599Z,9.30
2023-01-12T20:48:43.052Z,9.30
2023-01-12T20:51:16.428Z,9.30
2023-01-12T20:53:44.321Z,9.30
2023-01-12T20:56:11.392Z,9.30
2023-01-12T20:58:38.396Z,9.30
2023-01-12T21:01:11.987Z,9.40
2023-01-12T21:03:39.114Z,9.40
2023-01-12T21:06:11.850Z,9.40
2023-01-12T21:08:40.596Z,9.50
2023-01-12T21:11:07.827Z,9.50
2023-01-12T21:13:34.826Z,9.50
2023-01-12T21:16:04.914Z,9.50
2023-01-12T21:18:33.755Z,9.50
2023-01-12T21:21:01.764Z,9.50
2023-01-12T21:23:28.900Z,9.50
2023-01-12T21:25:55.829Z,9.50
2023-01-12T21:28:23.581Z,9.50
2023-01-12T21:30:50.965Z,9.50
2023-01-12T21:33:17.917Z,9.50
2023-01-12T21:35:53.773Z,9.60
2023-01-12T21:38:21.125Z,9.50
2023-01-12T21:40:48.028Z,9.60
2023-01-12T21:43:17.961Z,9.60
2023-01-12T21:45:48.865Z,9.70
2023-01-12T21:48:18.335Z,9.70
2023-01-12T21:50:45.364Z,9.70
2023-01-12T21:53:19.932Z,9.70
2023-01-12T21:55:56.759Z,9.70
2023-01-12T21:58:25.437Z,9.70
2023-01-12T22:00:53.493Z,9.60
2023-01-12T22:03:25.144Z,9.60
2023-01-12T22:05:53.168Z,9.60
2023-01-12T22:08:21.042Z,9.60
2023-01-12T22:10:48.394Z,9.50
2023-01-12T22:13:17.589Z,9.60
2023-01-12T22:15:45.039Z,9.60
2023-01-12T22:18:11.894Z,9.50
2023-01-12T22:20:38.772Z,9.50
2023-01-12T22:23:05.803Z,9.40
2023-01-12T22:25:32.742Z,9.50
2023-01-12T22:27:59.687Z,9.50
2023-01-12T22:30:27.885Z,9.50
2023-01-12T22:32:56.030Z,9.50
2023-01-12T22:35:23.187Z,9.50
2023-01-12T22:37:50.040Z,9.40
2023-01-12T22:40:17.314Z,9.50
2023-01-12T22:43:02.740Z,9.50
2023-01-12T22:45:29.649Z,9.60
2023-01-12T22:47:57.099Z,9.50
2023-01-12T22:50:24.792Z,9.50
2023-01-12T22:52:56.325Z,9.50
2023-01-12T22:55:25.127Z,9.60
2023-01-12T22:57:55.034Z,9.60
2023-01-12T23:00:22.249Z,9.60
2023-01-12T23:03:01.625Z,9.50
2023-01-12T23:05:35.720Z,9.60
2023-01-12T23:08:05.201Z,9.50
2023-01-12T23:10:33.063Z,9.50
2023-01-12T23:13:14.012Z,9.60
2023-01-12T23:15:46.190Z,9.50
2023-01-12T23:18:17.346Z,9.60
2023-01-12T23:20:44.980Z,9.60
2023-01-12T23:23:12.492Z,9.70
2023-01-12T23:25:39.730Z,9.60
2023-01-12T23:28:08.046Z,9.60
2023-01-12T23:30:35.328Z,9.70
2023-01-12T23:33:04.595Z,9.70
2023-01-12T23:35:40.032Z,9.70
2023-01-12T23:38:14.121Z,9.60
2023-01-12T23:40:41.284Z,9.60
2023-01-12T23:43:09.274Z,9.60
2023-01-12T23:45:36.283Z,9.60
2023-01-12T23:48:03.576Z,9.60
2023-01-12T23:50:30.444Z,9.60
2023-01-12T23:52:57.338Z,9.60
2023-01-12T23:55:25.980Z,9.60
2023-01-12T23:57:53.239Z,9.70
